sensor_id;sensor_type;location;lat;lon;timestamp;P1;durP1;ratioP1;P2;durP2;ratioP2
7745;SDS011;3917;42.748;23.278;2022-09-03T00:00:25;6.57;;;5.38;;
7745;SDS011;3917;42.748;23.278;2022-09-03T00:02:58;8.15;;;5.38;;
7745;SDS011;3917;42.748;23.278;2022-09-03T00:05:28;5.35;;;4.85;;
7745;SDS011;3917;42.748;23.278;2022-09-03T00:08:01;6.22;;;5.07;;
7745;SDS011;3917;42.748;23.278;2022-09-03T00:10:35;5.95;;;4.78;;
7745;SDS011;3917;42.748;23.278;2022-09-03T00:13:09;5.78;;;5.15;;
7745;SDS011;3917;42.748;23.278;2022-09-03T00:15:41;5.22;;;4.70;;
7745;SDS011;3917;42.748;23.278;2022-09-03T00:18:11;8.45;;;5.10;;
7745;SDS011;3917;42.748;23.278;2022-09-03T00:20:43;5.93;;;4.97;;
7745;SDS011;3917;42.748;23.278;2022-09-03T00:23:15;6.32;;;5.05;;
7745;SDS011;3917;42.748;23.278;2022-09-03T00:25:46;4.50;;;4.07;;
7745;SDS011;3917;42.748;23.278;2022-09-03T00:28:21;5.80;;;4.55;;
7745;SDS011;3917;42.748;23.278;2022-09-03T00:30:56;5.10;;;4.32;;
7745;SDS011;3917;42.748;23.278;2022-09-03T00:33:32;4.65;;;3.95;;
7745;SDS011;3917;42.748;23.278;2022-09-03T00:36:04;5.43;;;3.97;;
7745;SDS011;3917;42.748;23.278;2022-09-03T00:38:37;4.97;;;4.30;;
7745;SDS011;3917;42.748;23.278;2022-09-03T00:41:06;7.32;;;4.63;;
7745;SDS011;3917;42.748;23.278;2022-09-03T00:43:47;6.78;;;4.90;;
7745;SDS011;3917;42.748;23.278;2022-09-03T00:46:22;5.50;;;4.40;;
7745;SDS011;3917;42.748;23.278;2022-09-03T00:48:59;4.72;;;4.10;;
7745;SDS011;3917;42.748;23.278;2022-09-03T00:51:40;6.50;;;4.50;;
7745;SDS011;3917;42.748;23.278;2022-09-03T00:54:17;4.75;;;4.05;;
7745;SDS011;3917;42.748;23.278;2022-09-03T00:56:52;6.22;;;4.13;;
7745;SDS011;3917;42.748;23.278;2022-09-03T00:59:31;4.60;;;4.00;;
7745;SDS011;3917;42.748;23.278;2022-09-03T01:02:08;4.75;;;4.03;;
7745;SDS011;3917;42.748;23.278;2022-09-03T01:04:50;4.65;;;4.10;;
7745;SDS011;3917;42.748;23.278;2022-09-03T01:07:30;4.75;;;4.30;;
7745;SDS011;3917;42.748;23.278;2022-09-03T01:10:09;6.68;;;4.82;;
7745;SDS011;3917;42.748;23.278;2022-09-03T01:12:50;4.53;;;4.13;;
7745;SDS011;3917;42.748;23.278;2022-09-03T01:15:25;4.35;;;3.72;;
7745;SDS011;3917;42.748;23.278;2022-09-03T01:18:00;5.53;;;4.22;;
7745;SDS011;3917;42.748;23.278;2022-09-03T01:20:44;4.97;;;4.10;;
7745;SDS011;3917;42.748;23.278;2022-09-03T01:23:25;7.05;;;4.70;;
7745;SDS011;3917;42.748;23.278;2022-09-03T01:26:20;5.57;;;4.30;;
7745;SDS011;3917;42.748;23.278;2022-09-03T01:28:57;7.05;;;4.80;;
7745;SDS011;3917;42.748;23.278;2022-09-03T01:31:33;6.53;;;4.82;;
7745;SDS011;3917;42.748;23.278;2022-09-03T01:34:11;6.18;;;4.50;;
7745;SDS011;3917;42.748;23.278;2022-09-03T01:36:47;7.60;;;4.43;;
7745;SDS011;3917;42.748;23.278;2022-09-03T01:39:24;7.38;;;5.15;;
7745;SDS011;3917;42.748;23.278;2022-09-03T01:42:04;5.93;;;4.57;;
7745;SDS011;3917;42.748;23.278;2022-09-03T01:44:49;6.60;;;5.00;;
7745;SDS011;3917;42.748;23.278;2022-09-03T01:47:27;6.28;;;4.60;;
7745;SDS011;3917;42.748;23.278;2022-09-03T01:50:04;6.18;;;4.90;;
7745;SDS011;3917;42.748;23.278;2022-09-03T01:52:39;6.78;;;4.43;;
7745;SDS011;3917;42.748;23.278;2022-09-03T01:55:17;6.15;;;4.55;;
7745;SDS011;3917;42.748;23.278;2022-09-03T01:57:52;10.18;;;5.30;;
7745;SDS011;3917;42.748;23.278;2022-09-03T02:00:24;6.18;;;4.32;;
7745;SDS011;3917;42.748;23.278;2022-09-03T02:02:54;6.68;;;4.90;;
7745;SDS011;3917;42.748;23.278;2022-09-03T02:05:21;6.80;;;4.78;;
7745;SDS011;3917;42.748;23.278;2022-09-03T02:07:50;6.72;;;4.50;;
7745;SDS011;3917;42.748;23.278;2022-09-03T02:10:24;5.05;;;4.43;;
7745;SDS011;3917;42.748;23.278;2022-09-03T02:12:56;7.22;;;4.68;;
7745;SDS011;3917;42.748;23.278;2022-09-03T02:15:28;9.02;;;5.13;;
7745;SDS011;3917;42.748;23.278;2022-09-03T02:17:59;6.15;;;5.18;;
7745;SDS011;3917;42.748;23.278;2022-09-03T02:20:29;6.80;;;5.20;;
7745;SDS011;3917;42.748;23.278;2022-09-03T02:22:56;7.93;;;5.53;;
7745;SDS011;3917;42.748;23.278;2022-09-03T02:25:28;8.05;;;5.32;;
7745;SDS011;3917;42.748;23.278;2022-09-03T02:27:58;6.53;;;5.03;;
7745;SDS011;3917;42.748;23.278;2022-09-03T02:30:28;7.70;;;4.93;;
7745;SDS011;3917;42.748;23.278;2022-09-03T02:32:54;7.07;;;5.45;;
7745;SDS011;3917;42.748;23.278;2022-09-03T02:35:21;9.88;;;6.28;;
7745;SDS011;3917;42.748;23.278;2022-09-03T02:37:48;7.90;;;5.90;;
7745;SDS011;3917;42.748;23.278;2022-09-03T02:40:15;8.13;;;5.50;;
7745;SDS011;3917;42.748;23.278;2022-09-03T02:42:42;9.90;;;5.82;;
7745;SDS011;3917;42.748;23.278;2022-09-03T02:45:15;6.85;;;5.68;;
7745;SDS011;3917;42.748;23.278;2022-09-03T02:47:51;9.63;;;5.55;;
7745;SDS011;3917;42.748;23.278;2022-09-03T02:50:20;11.18;;;5.97;;
7745;SDS011;3917;42.748;23.278;2022-09-03T02:52:47;7.25;;;5.35;;
7745;SDS011;3917;42.748;23.278;2022-09-03T02:55:14;9.15;;;6.63;;
7745;SDS011;3917;42.748;23.278;2022-09-03T02:57:41;8.32;;;6.03;;
7745;SDS011;3917;42.748;23.278;2022-09-03T03:00:08;9.23;;;5.90;;
7745;SDS011;3917;42.748;23.278;2022-09-03T03:02:36;9.25;;;6.20;;
7745;SDS011;3917;42.748;23.278;2022-09-03T03:05:04;8.35;;;5.80;;
7745;SDS011;3917;42.748;23.278;2022-09-03T03:07:34;10.10;;;6.15;;
7745;SDS011;3917;42.748;23.278;2022-09-03T03:10:04;9.38;;;6.43;;
7745;SDS011;3917;42.748;23.278;2022-09-03T03:12:32;9.68;;;6.05;;
7745;SDS011;3917;42.748;23.278;2022-09-03T03:14:59;9.88;;;6.10;;
7745;SDS011;3917;42.748;23.278;2022-09-03T03:17:26;11.88;;;6.10;;
7745;SDS011;3917;42.748;23.278;2022-09-03T03:19:52;8.70;;;6.25;;
7745;SDS011;3917;42.748;23.278;2022-09-03T03:22:21;9.40;;;5.82;;
7745;SDS011;3917;42.748;23.278;2022-09-03T03:24:47;7.22;;;5.55;;
7745;SDS011;3917;42.748;23.278;2022-09-03T03:27:14;12.45;;;6.55;;
7745;SDS011;3917;42.748;23.278;2022-09-03T03:29:42;10.85;;;6.40;;
7745;SDS011;3917;42.748;23.278;2022-09-03T03:32:09;10.65;;;6.75;;
7745;SDS011;3917;42.748;23.278;2022-09-03T03:34:36;12.38;;;6.30;;
7745;SDS011;3917;42.748;23.278;2022-09-03T03:37:04;9.32;;;6.43;;
7745;SDS011;3917;42.748;23.278;2022-09-03T03:39:32;10.27;;;6.15;;
7745;SDS011;3917;42.748;23.278;2022-09-03T03:41:59;9.38;;;6.13;;
7745;SDS011;3917;42.748;23.278;2022-09-03T03:44:26;10.02;;;6.18;;
7745;SDS011;3917;42.748;23.278;2022-09-03T03:46:53;9.10;;;5.72;;
7745;SDS011;3917;42.748;23.278;2022-09-03T03:49:20;9.07;;;5.82;;
7745;SDS011;3917;42.748;23.278;2022-09-03T03:51:46;9.48;;;6.40;;
7745;SDS011;3917;42.748;23.278;2022-09-03T03:54:13;11.23;;;6.35;;
7745;SDS011;3917;42.748;23.278;2022-09-03T03:56:41;9.55;;;6.78;;
7745;SDS011;3917;42.748;23.278;2022-09-03T03:59:08;8.80;;;6.13;;
7745;SDS011;3917;42.748;23.278;2022-09-03T04:01:35;9.00;;;6.07;;
7745;SDS011;3917;42.748;23.278;2022-09-03T04:04:02;8.25;;;4.90;;
7745;SDS011;3917;42.748;23.278;2022-09-03T04:06:29;8.75;;;6.35;;
7745;SDS011;3917;42.748;23.278;2022-09-03T04:08:56;9.43;;;6.20;;
7745;SDS011;3917;42.748;23.278;2022-09-03T04:11:23;7.82;;;5.72;;
7745;SDS011;3917;42.748;23.278;2022-09-03T04:13:52;8.85;;;6.07;;
7745;SDS011;3917;42.748;23.278;2022-09-03T04:16:20;9.68;;;6.05;;
7745;SDS011;3917;42.748;23.278;2022-09-03T04:18:48;7.95;;;6.35;;
7745;SDS011;3917;42.748;23.278;2022-09-03T04:21:16;8.05;;;6.00;;
7745;SDS011;3917;42.748;23.278;2022-09-03T04:23:46;9.05;;;6.30;;
7745;SDS011;3917;42.748;23.278;2022-09-03T04:26:15;10.07;;;5.82;;
7745;SDS011;3917;42.748;23.278;2022-09-03T04:28:43;7.57;;;5.55;;
7745;SDS011;3917;42.748;23.278;2022-09-03T04:31:12;12.23;;;5.43;;
7745;SDS011;3917;42.748;23.278;2022-09-03T04:33:41;7.53;;;5.68;;
7745;SDS011;3917;42.748;23.278;2022-09-03T04:36:08;9.68;;;6.25;;
7745;SDS011;3917;42.748;23.278;2022-09-03T04:38:37;8.35;;;5.57;;
7745;SDS011;3917;42.748;23.278;2022-09-03T04:41:06;8.73;;;6.25;;
7745;SDS011;3917;42.748;23.278;2022-09-03T04:43:34;10.95;;;6.15;;
7745;SDS011;3917;42.748;23.278;2022-09-03T04:46:02;9.77;;;6.15;;
7745;SDS011;3917;42.748;23.278;2022-09-03T04:48:32;8.15;;;5.82;;
7745;SDS011;3917;42.748;23.278;2022-09-03T04:51:02;9.27;;;5.90;;
7745;SDS011;3917;42.748;23.278;2022-09-03T04:53:30;8.02;;;5.78;;
7745;SDS011;3917;42.748;23.278;2022-09-03T04:55:59;10.45;;;6.53;;
7745;SDS011;3917;42.748;23.278;2022-09-03T04:58:26;8.98;;;5.68;;
7745;SDS011;3917;42.748;23.278;2022-09-03T05:00:53;9.75;;;6.38;;
7745;SDS011;3917;42.748;23.278;2022-09-03T05:03:20;6.80;;;5.68;;
7745;SDS011;3917;42.748;23.278;2022-09-03T05:05:54;10.50;;;6.25;;
7745;SDS011;3917;42.748;23.278;2022-09-03T05:08:21;6.90;;;4.78;;
7745;SDS011;3917;42.748;23.278;2022-09-03T05:10:56;8.43;;;5.72;;
7745;SDS011;3917;42.748;23.278;2022-09-03T05:13:24;8.60;;;5.70;;
7745;SDS011;3917;42.748;23.278;2022-09-03T05:15:51;9.40;;;5.90;;
7745;SDS011;3917;42.748;23.278;2022-09-03T05:18:18;6.95;;;4.85;;
7745;SDS011;3917;42.748;23.278;2022-09-03T05:20:45;7.68;;;5.85;;
7745;SDS011;3917;42.748;23.278;2022-09-03T05:23:13;7.95;;;5.35;;
7745;SDS011;3917;42.748;23.278;2022-09-03T05:25:40;8.27;;;6.03;;
7745;SDS011;3917;42.748;23.278;2022-09-03T05:28:07;8.77;;;5.47;;
7745;SDS011;3917;42.748;23.278;2022-09-03T05:30:33;7.20;;;5.20;;
7745;SDS011;3917;42.748;23.278;2022-09-03T05:33:00;8.00;;;6.22;;
7745;SDS011;3917;42.748;23.278;2022-09-03T05:35:30;7.07;;;5.65;;
7745;SDS011;3917;42.748;23.278;2022-09-03T05:37:56;7.47;;;5.63;;
7745;SDS011;3917;42.748;23.278;2022-09-03T05:40:27;8.13;;;5.20;;
7745;SDS011;3917;42.748;23.278;2022-09-03T05:42:54;7.32;;;5.13;;
7745;SDS011;3917;42.748;23.278;2022-09-03T05:45:23;8.18;;;5.93;;
7745;SDS011;3917;42.748;23.278;2022-09-03T05:47:52;6.60;;;4.97;;
7745;SDS011;3917;42.748;23.278;2022-09-03T05:50:18;7.35;;;5.45;;
7745;SDS011;3917;42.748;23.278;2022-09-03T05:52:45;6.63;;;5.28;;
7745;SDS011;3917;42.748;23.278;2022-09-03T05:55:12;5.45;;;4.70;;
7745;SDS011;3917;42.748;23.278;2022-09-03T05:57:40;7.53;;;4.80;;
7745;SDS011;3917;42.748;23.278;2022-09-03T06:00:08;7.93;;;5.40;;
7745;SDS011;3917;42.748;23.278;2022-09-03T06:02:36;6.10;;;4.65;;
7745;SDS011;3917;42.748;23.278;2022-09-03T06:05:03;5.65;;;4.82;;
7745;SDS011;3917;42.748;23.278;2022-09-03T06:07:30;4.50;;;4.07;;
7745;SDS011;3917;42.748;23.278;2022-09-03T06:09:58;5.35;;;4.32;;
7745;SDS011;3917;42.748;23.278;2022-09-03T06:12:25;4.35;;;3.95;;
7745;SDS011;3917;42.748;23.278;2022-09-03T06:14:53;4.35;;;3.95;;
7745;SDS011;3917;42.748;23.278;2022-09-03T06:17:20;5.03;;;4.53;;
7745;SDS011;3917;42.748;23.278;2022-09-03T06:19:46;6.18;;;4.13;;
7745;SDS011;3917;42.748;23.278;2022-09-03T06:22:13;4.35;;;3.95;;
7745;SDS011;3917;42.748;23.278;2022-09-03T06:24:41;6.20;;;4.20;;
7745;SDS011;3917;42.748;23.278;2022-09-03T06:27:07;4.25;;;3.85;;
7745;SDS011;3917;42.748;23.278;2022-09-03T06:29:34;4.55;;;3.97;;
7745;SDS011;3917;42.748;23.278;2022-09-03T06:32:04;4.13;;;3.75;;
7745;SDS011;3917;42.748;23.278;2022-09-03T06:34:31;4.53;;;3.85;;
7745;SDS011;3917;42.748;23.278;2022-09-03T06:36:58;4.60;;;4.20;;
7745;SDS011;3917;42.748;23.278;2022-09-03T06:39:24;9.32;;;4.97;;
7745;SDS011;3917;42.748;23.278;2022-09-03T06:41:51;3.88;;;3.47;;
7745;SDS011;3917;42.748;23.278;2022-09-03T06:44:19;4.70;;;3.92;;
7745;SDS011;3917;42.748;23.278;2022-09-03T06:46:45;3.85;;;3.28;;
7745;SDS011;3917;42.748;23.278;2022-09-03T06:49:14;4.30;;;3.70;;
7745;SDS011;3917;42.748;23.278;2022-09-03T06:51:41;3.58;;;3.28;;
7745;SDS011;3917;42.748;23.278;2022-09-03T06:54:09;4.10;;;3.70;;
7745;SDS011;3917;42.748;23.278;2022-09-03T06:56:37;3.63;;;3.05;;
7745;SDS011;3917;42.748;23.278;2022-09-03T06:59:06;6.13;;;3.72;;
7745;SDS011;3917;42.748;23.278;2022-09-03T07:01:34;4.47;;;3.50;;
7745;SDS011;3917;42.748;23.278;2022-09-03T07:04:05;5.03;;;3.85;;
7745;SDS011;3917;42.748;23.278;2022-09-03T07:06:34;3.88;;;3.50;;
7745;SDS011;3917;42.748;23.278;2022-09-03T07:09:03;4.93;;;4.43;;
7745;SDS011;3917;42.748;23.278;2022-09-03T07:11:35;5.85;;;3.42;;
7745;SDS011;3917;42.748;23.278;2022-09-03T07:14:03;6.55;;;4.50;;
7745;SDS011;3917;42.748;23.278;2022-09-03T07:16:36;5.13;;;4.07;;
7745;SDS011;3917;42.748;23.278;2022-09-03T07:21:35;4.82;;;3.65;;
7745;SDS011;3917;42.748;23.278;2022-09-03T07:24:02;4.28;;;3.88;;
7745;SDS011;3917;42.748;23.278;2022-09-03T07:26:32;4.95;;;3.55;;
7745;SDS011;3917;42.748;23.278;2022-09-03T07:29:00;3.60;;;3.30;;
7745;SDS011;3917;42.748;23.278;2022-09-03T07:31:28;3.50;;;3.20;;
7745;SDS011;3917;42.748;23.278;2022-09-03T07:33:57;3.97;;;3.47;;
7745;SDS011;3917;42.748;23.278;2022-09-03T07:36:26;3.90;;;3.42;;
7745;SDS011;3917;42.748;23.278;2022-09-03T07:38:56;3.55;;;3.25;;
7745;SDS011;3917;42.748;23.278;2022-09-03T07:41:24;3.90;;;3.50;;
7745;SDS011;3917;42.748;23.278;2022-09-03T07:43:52;3.60;;;3.30;;
7745;SDS011;3917;42.748;23.278;2022-09-03T07:46:20;3.55;;;3.25;;
7745;SDS011;3917;42.748;23.278;2022-09-03T07:48:48;3.13;;;2.92;;
7745;SDS011;3917;42.748;23.278;2022-09-03T07:51:16;4.07;;;3.70;;
7745;SDS011;3917;42.748;23.278;2022-09-03T07:53:43;3.92;;;3.53;;
7745;SDS011;3917;42.748;23.278;2022-09-03T07:56:12;4.10;;;3.70;;
7745;SDS011;3917;42.748;23.278;2022-09-03T07:58:40;4.05;;;3.55;;
7745;SDS011;3917;42.748;23.278;2022-09-03T08:01:08;3.75;;;3.45;;
7745;SDS011;3917;42.748;23.278;2022-09-03T08:03:37;4.95;;;3.33;;
7745;SDS011;3917;42.748;23.278;2022-09-03T08:06:05;3.53;;;3.22;;
7745;SDS011;3917;42.748;23.278;2022-09-03T08:08:33;3.13;;;2.90;;
7745;SDS011;3917;42.748;23.278;2022-09-03T08:11:05;3.88;;;3.40;;
7745;SDS011;3917;42.748;23.278;2022-09-03T08:13:36;3.22;;;2.85;;
7745;SDS011;3917;42.748;23.278;2022-09-03T08:16:09;3.17;;;2.80;;
7745;SDS011;3917;42.748;23.278;2022-09-03T08:18:37;3.42;;;3.13;;
7745;SDS011;3917;42.748;23.278;2022-09-03T08:21:04;2.70;;;2.50;;
7745;SDS011;3917;42.748;23.278;2022-09-03T08:23:36;2.97;;;2.78;;
7745;SDS011;3917;42.748;23.278;2022-09-03T08:26:03;3.30;;;3.10;;
7745;SDS011;3917;42.748;23.278;2022-09-03T08:28:31;3.08;;;2.88;;
7745;SDS011;3917;42.748;23.278;2022-09-03T08:31:04;4.13;;;2.95;;
7745;SDS011;3917;42.748;23.278;2022-09-03T08:33:32;3.38;;;3.17;;
7745;SDS011;3917;42.748;23.278;2022-09-03T08:36:08;3.10;;;2.90;;
7745;SDS011;3917;42.748;23.278;2022-09-03T08:38:39;3.45;;;3.15;;
7745;SDS011;3917;42.748;23.278;2022-09-03T08:41:10;3.47;;;3.17;;
7745;SDS011;3917;42.748;23.278;2022-09-03T08:43:52;2.95;;;2.75;;
7745;SDS011;3917;42.748;23.278;2022-09-03T08:46:35;3.08;;;2.63;;
7745;SDS011;3917;42.748;23.278;2022-09-03T08:49:12;2.95;;;2.75;;
7745;SDS011;3917;42.748;23.278;2022-09-03T08:51:44;3.20;;;2.90;;
7745;SDS011;3917;42.748;23.278;2022-09-03T08:54:13;3.15;;;2.95;;
7745;SDS011;3917;42.748;23.278;2022-09-03T08:56:42;3.63;;;3.33;;
7745;SDS011;3917;42.748;23.278;2022-09-03T08:59:09;3.38;;;3.10;;
7745;SDS011;3917;42.748;23.278;2022-09-03T09:01:40;3.08;;;2.80;;
7745;SDS011;3917;42.748;23.278;2022-09-03T09:04:26;3.85;;;3.55;;
7745;SDS011;3917;42.748;23.278;2022-09-03T09:07:04;3.70;;;3.25;;
7745;SDS011;3917;42.748;23.278;2022-09-03T09:09:40;3.58;;;3.38;;
7745;SDS011;3917;42.748;23.278;2022-09-03T09:12:22;3.28;;;2.97;;
7745;SDS011;3917;42.748;23.278;2022-09-03T09:15:09;3.47;;;3.17;;
7745;SDS011;3917;42.748;23.278;2022-09-03T09:17:44;3.20;;;2.95;;
7745;SDS011;3917;42.748;23.278;2022-09-03T09:20:31;2.85;;;2.65;;
7745;SDS011;3917;42.748;23.278;2022-09-03T09:23:06;3.33;;;2.97;;
7745;SDS011;3917;42.748;23.278;2022-09-03T09:25:42;2.70;;;2.50;;
7745;SDS011;3917;42.748;23.278;2022-09-03T09:28:15;2.85;;;2.65;;
7745;SDS011;3917;42.748;23.278;2022-09-03T09:30:44;2.05;;;1.95;;
7745;SDS011;3917;42.748;23.278;2022-09-03T09:33:15;2.50;;;2.35;;
7745;SDS011;3917;42.748;23.278;2022-09-03T09:35:42;2.10;;;2.00;;
7745;SDS011;3917;42.748;23.278;2022-09-03T09:38:10;2.30;;;2.10;;
7745;SDS011;3917;42.748;23.278;2022-09-03T09:40:38;2.10;;;2.00;;
7745;SDS011;3917;42.748;23.278;2022-09-03T09:43:08;2.03;;;1.92;;
7745;SDS011;3917;42.748;23.278;2022-09-03T09:45:36;2.65;;;1.77;;
7745;SDS011;3917;42.748;23.278;2022-09-03T09:48:10;2.05;;;1.95;;
7745;SDS011;3917;42.748;23.278;2022-09-03T09:50:44;2.50;;;2.30;;
7745;SDS011;3917;42.748;23.278;2022-09-03T09:53:11;1.60;;;1.55;;
7745;SDS011;3917;42.748;23.278;2022-09-03T09:55:48;2.22;;;2.03;;
7745;SDS011;3917;42.748;23.278;2022-09-03T09:58:22;2.00;;;1.90;;
7745;SDS011;3917;42.748;23.278;2022-09-03T10:00:57;1.77;;;1.67;;
7745;SDS011;3917;42.748;23.278;2022-09-03T10:03:28;1.73;;;1.63;;
7745;SDS011;3917;42.748;23.278;2022-09-03T10:06:05;2.10;;;2.00;;
7745;SDS011;3917;42.748;23.278;2022-09-03T10:08:52;1.65;;;1.60;;
7745;SDS011;3917;42.748;23.278;2022-09-03T10:11:30;1.33;;;1.33;;
7745;SDS011;3917;42.748;23.278;2022-09-03T10:14:04;1.90;;;1.80;;
7745;SDS011;3917;42.748;23.278;2022-09-03T10:16:38;1.77;;;1.67;;
7745;SDS011;3917;42.748;23.278;2022-09-03T10:19:16;1.88;;;1.77;;
7745;SDS011;3917;42.748;23.278;2022-09-03T10:21:47;1.70;;;1.60;;
7745;SDS011;3917;42.748;23.278;2022-09-03T10:24:28;1.77;;;1.67;;
7745;SDS011;3917;42.748;23.278;2022-09-03T10:27:05;1.98;;;1.88;;
7745;SDS011;3917;42.748;23.278;2022-09-03T10:29:40;1.90;;;1.80;;
7745;SDS011;3917;42.748;23.278;2022-09-03T10:32:18;2.22;;;2.13;;
7745;SDS011;3917;42.748;23.278;2022-09-03T10:34:56;2.47;;;2.28;;
7745;SDS011;3917;42.748;23.278;2022-09-03T10:37:34;2.65;;;2.47;;
7745;SDS011;3917;42.748;23.278;2022-09-03T10:40:10;3.00;;;2.80;;
7745;SDS011;3917;42.748;23.278;2022-09-03T10:42:50;2.50;;;2.40;;
7745;SDS011;3917;42.748;23.278;2022-09-03T10:45:28;2.58;;;2.38;;
7745;SDS011;3917;42.748;23.278;2022-09-03T10:48:05;2.30;;;2.20;;
7745;SDS011;3917;42.748;23.278;2022-09-03T10:50:45;2.30;;;2.15;;
7745;SDS011;3917;42.748;23.278;2022-09-03T10:53:18;2.95;;;2.72;;
7745;SDS011;3917;42.748;23.278;2022-09-03T10:55:56;3.95;;;2.90;;
7745;SDS011;3917;42.748;23.278;2022-09-03T10:58:30;2.72;;;2.53;;
7745;SDS011;3917;42.748;23.278;2022-09-03T11:01:17;3.30;;;3.00;;
7745;SDS011;3917;42.748;23.278;2022-09-03T11:06:23;2.97;;;2.58;;
7745;SDS011;3917;42.748;23.278;2022-09-03T11:08:54;3.25;;;3.05;;
7745;SDS011;3917;42.748;23.278;2022-09-03T11:11:26;2.47;;;2.38;;
7745;SDS011;3917;42.748;23.278;2022-09-03T11:14:01;2.90;;;2.70;;
7745;SDS011;3917;42.748;23.278;2022-09-03T11:16:34;2.72;;;2.60;;
7745;SDS011;3917;42.748;23.278;2022-09-03T11:19:06;3.25;;;2.78;;
7745;SDS011;3917;42.748;23.278;2022-09-03T11:21:38;3.47;;;3.17;;
7745;SDS011;3917;42.748;23.278;2022-09-03T11:24:08;4.38;;;3.97;;
7745;SDS011;3917;42.748;23.278;2022-09-03T11:26:40;3.45;;;3.22;;
7745;SDS011;3917;42.748;23.278;2022-09-03T11:29:16;3.28;;;2.72;;
7745;SDS011;3917;42.748;23.278;2022-09-03T11:32:19;3.03;;;2.80;;
7745;SDS011;3917;42.748;23.278;2022-09-03T11:34:56;3.22;;;3.03;;
7745;SDS011;3917;42.748;23.278;2022-09-03T11:37:24;3.10;;;2.90;;
7745;SDS011;3917;42.748;23.278;2022-09-03T11:39:53;5.13;;;2.72;;
7745;SDS011;3917;42.748;23.278;2022-09-03T11:42:25;3.22;;;3.03;;
7745;SDS011;3917;42.748;23.278;2022-09-03T11:44:58;3.50;;;3.20;;
7745;SDS011;3917;42.748;23.278;2022-09-03T11:47:38;2.90;;;2.70;;
7745;SDS011;3917;42.748;23.278;2022-09-03T11:50:07;3.60;;;3.30;;
7745;SDS011;3917;42.748;23.278;2022-09-03T11:52:47;2.80;;;2.60;;
7745;SDS011;3917;42.748;23.278;2022-09-03T11:55:29;3.40;;;3.10;;
7745;SDS011;3917;42.748;23.278;2022-09-03T11:57:58;3.08;;;2.83;;
7745;SDS011;3917;42.748;23.278;2022-09-03T12:00:35;3.17;;;2.90;;
7745;SDS011;3917;42.748;23.278;2022-09-03T12:03:11;3.35;;;3.15;;
7745;SDS011;3917;42.748;23.278;2022-09-03T12:05:44;3.60;;;3.30;;
7745;SDS011;3917;42.748;23.278;2022-09-03T12:08:21;3.70;;;3.40;;
7745;SDS011;3917;42.748;23.278;2022-09-03T12:11:16;3.90;;;3.50;;
7745;SDS011;3917;42.748;23.278;2022-09-03T12:13:57;3.97;;;3.60;;
7745;SDS011;3917;42.748;23.278;2022-09-03T12:16:38;5.47;;;3.67;;
7745;SDS011;3917;42.748;23.278;2022-09-03T12:19:18;4.63;;;4.20;;
7745;SDS011;3917;42.748;23.278;2022-09-03T12:22:01;3.60;;;3.30;;
7745;SDS011;3917;42.748;23.278;2022-09-03T12:24:33;3.92;;;3.45;;
7745;SDS011;3917;42.748;23.278;2022-09-03T12:27:01;4.70;;;3.85;;
7745;SDS011;3917;42.748;23.278;2022-09-03T12:29:29;3.30;;;3.10;;
7745;SDS011;3917;42.748;23.278;2022-09-03T12:32:04;4.18;;;3.88;;
7745;SDS011;3917;42.748;23.278;2022-09-03T12:34:33;3.28;;;2.72;;
7745;SDS011;3917;42.748;23.278;2022-09-03T12:37:00;3.10;;;2.90;;
7745;SDS011;3917;42.748;23.278;2022-09-03T12:39:28;2.97;;;2.78;;
7745;SDS011;3917;42.748;23.278;2022-09-03T12:41:59;3.40;;;3.13;;
7745;SDS011;3917;42.748;23.278;2022-09-03T12:44:29;2.85;;;2.63;;
7745;SDS011;3917;42.748;23.278;2022-09-03T12:47:01;3.20;;;2.90;;
7745;SDS011;3917;42.748;23.278;2022-09-03T12:49:35;2.63;;;2.42;;
7745;SDS011;3917;42.748;23.278;2022-09-03T12:52:04;2.47;;;2.38;;
7745;SDS011;3917;42.748;23.278;2022-09-03T12:54:37;2.88;;;2.67;;
7745;SDS011;3917;42.748;23.278;2022-09-03T12:57:09;2.92;;;2.72;;
7745;SDS011;3917;42.748;23.278;2022-09-03T12:59:40;2.25;;;2.15;;
7745;SDS011;3917;42.748;23.278;2022-09-03T13:02:11;2.63;;;2.47;;
7745;SDS011;3917;42.748;23.278;2022-09-03T13:04:43;1.90;;;1.80;;
7745;SDS011;3917;42.748;23.278;2022-09-03T13:07:12;2.45;;;2.25;;
7745;SDS011;3917;42.748;23.278;2022-09-03T13:09:47;2.58;;;2.38;;
7745;SDS011;3917;42.748;23.278;2022-09-03T13:12:23;2.90;;;2.20;;
7745;SDS011;3917;42.748;23.278;2022-09-03T13:14:55;2.22;;;2.13;;
7745;SDS011;3917;42.748;23.278;2022-09-03T13:17:28;2.55;;;2.45;;
7745;SDS011;3917;42.748;23.278;2022-09-03T13:20:15;2.50;;;2.28;;
7745;SDS011;3917;42.748;23.278;2022-09-03T13:22:56;2.00;;;1.90;;
7745;SDS011;3917;42.748;23.278;2022-09-03T13:25:33;1.80;;;1.70;;
7745;SDS011;3917;42.748;23.278;2022-09-03T13:28:09;1.75;;;1.65;;
7745;SDS011;3917;42.748;23.278;2022-09-03T13:30:51;1.50;;;1.40;;
7745;SDS011;3917;42.748;23.278;2022-09-03T13:33:31;1.60;;;1.50;;
7745;SDS011;3917;42.748;23.278;2022-09-03T13:36:01;1.83;;;1.73;;
7745;SDS011;3917;42.748;23.278;2022-09-03T13:38:32;2.10;;;2.00;;
7745;SDS011;3917;42.748;23.278;2022-09-03T13:41:06;2.20;;;2.10;;
7745;SDS011;3917;42.748;23.278;2022-09-03T13:43:46;1.80;;;1.70;;
7745;SDS011;3917;42.748;23.278;2022-09-03T13:46:20;2.30;;;2.00;;
7745;SDS011;3917;42.748;23.278;2022-09-03T13:48:51;2.00;;;1.90;;
7745;SDS011;3917;42.748;23.278;2022-09-03T13:51:44;2.00;;;1.90;;
7745;SDS011;3917;42.748;23.278;2022-09-03T13:54:17;1.73;;;1.63;;
7745;SDS011;3917;42.748;23.278;2022-09-03T13:56:49;2.13;;;2.03;;
7745;SDS011;3917;42.748;23.278;2022-09-03T13:59:28;2.20;;;1.98;;
7745;SDS011;3917;42.748;23.278;2022-09-03T14:02:11;2.00;;;1.90;;
7745;SDS011;3917;42.748;23.278;2022-09-03T14:05:01;2.30;;;2.10;;
7745;SDS011;3917;42.748;23.278;2022-09-03T14:13:59;2.75;;;2.55;;
7745;SDS011;3917;42.748;23.278;2022-09-03T14:19:15;2.70;;;2.53;;
7745;SDS011;3917;42.748;23.278;2022-09-03T14:22:00;2.72;;;2.03;;
7745;SDS011;3917;42.748;23.278;2022-09-03T14:24:38;2.33;;;2.22;;
7745;SDS011;3917;42.748;23.278;2022-09-03T14:27:11;3.08;;;2.40;;
7745;SDS011;3917;42.748;23.278;2022-09-03T14:29:48;4.28;;;2.58;;
7745;SDS011;3917;42.748;23.278;2022-09-03T14:32:38;2.10;;;2.00;;
7745;SDS011;3917;42.748;23.278;2022-09-03T14:49:36;1.77;;;1.67;;
7745;SDS011;3917;42.748;23.278;2022-09-03T14:52:26;2.38;;;1.90;;
7745;SDS011;3917;42.748;23.278;2022-09-03T14:55:36;2.03;;;1.83;;
7745;SDS011;3917;42.748;23.278;2022-09-03T15:01:04;1.92;;;1.73;;
7745;SDS011;3917;42.748;23.278;2022-09-03T15:03:52;2.05;;;1.88;;
7745;SDS011;3917;42.748;23.278;2022-09-03T15:07:01;2.35;;;2.20;;
7745;SDS011;3917;42.748;23.278;2022-09-03T15:09:39;2.35;;;2.17;;
7745;SDS011;3917;42.748;23.278;2022-09-03T15:12:15;1.85;;;1.75;;
7745;SDS011;3917;42.748;23.278;2022-09-03T15:14:49;2.03;;;1.93;;
7745;SDS011;3917;42.748;23.278;2022-09-03T15:17:25;2.10;;;1.90;;
7745;SDS011;3917;42.748;23.278;2022-09-03T15:20:21;2.13;;;1.92;;
7745;SDS011;3917;42.748;23.278;2022-09-03T15:23:06;1.90;;;1.80;;
7745;SDS011;3917;42.748;23.278;2022-09-03T15:25:47;2.25;;;1.65;;
7745;SDS011;3917;42.748;23.278;2022-09-03T15:28:25;1.90;;;1.80;;
7745;SDS011;3917;42.748;23.278;2022-09-03T15:31:03;1.77;;;1.67;;
7745;SDS011;3917;42.748;23.278;2022-09-03T15:33:43;2.63;;;2.50;;
7745;SDS011;3917;42.748;23.278;2022-09-03T15:36:18;2.35;;;2.17;;
7745;SDS011;3917;42.748;23.278;2022-09-03T15:38:51;2.53;;;2.33;;
7745;SDS011;3917;42.748;23.278;2022-09-03T15:41:28;2.30;;;2.10;;
7745;SDS011;3917;42.748;23.278;2022-09-03T15:44:00;3.33;;;2.35;;
7745;SDS011;3917;42.748;23.278;2022-09-03T15:46:37;2.38;;;2.17;;
7745;SDS011;3917;42.748;23.278;2022-09-03T15:49:18;2.40;;;2.20;;
7745;SDS011;3917;42.748;23.278;2022-09-03T15:51:58;2.50;;;2.30;;
7745;SDS011;3917;42.748;23.278;2022-09-03T15:54:51;2.10;;;2.00;;
7745;SDS011;3917;42.748;23.278;2022-09-03T15:57:27;2.83;;;2.63;;
7745;SDS011;3917;42.748;23.278;2022-09-03T16:00:00;2.35;;;2.15;;
7745;SDS011;3917;42.748;23.278;2022-09-03T16:02:33;2.65;;;2.45;;
7745;SDS011;3917;42.748;23.278;2022-09-03T16:05:09;3.75;;;2.55;;